Time,TemperatureF,DewpointF,PressureIn,WindDirection,WindDirectionDegrees,WindSpeedMPH,WindSpeedGustMPH,Humidity,HourlyPrecipIn,Conditions,Clouds,dailyrainin,SolarRadiationWatts/m^2,SoftwareType,DateUTC
2013-05-02 00:02:00,74.8,15.0,29.96,ENE,60,5.0,21.0,10,0.00,,,0.00,0,weatherlink.com 1.10,2013-05-02 07:02:00,
2013-05-02 00:17:00,74.9,15.0,29.97,North,350,8.0,15.0,10,0.00,,,0.00,0,weatherlink.com 1.10,2013-05-02 07:17:00,
2013-05-02 00:32:00,74.9,15.0,29.97,NE,55,6.0,15.0,10,0.00,,,0.00,0,weatherlink.com 1.10,2013-05-02 07:32:00,
2013-05-02 00:47:00,74.5,14.0,29.97,NNE,23,9.0,9.0,10,0.00,,,0.00,0,weatherlink.com 1.10,2013-05-02 07:47:00,
2013-05-02 01:02:00,74.3,14.0,29.97,ESE,109,3.0,12.0,10,0.00,,,0.00,0,weatherlink.com 1.10,2013-05-02 08:02:00,
2013-05-02 01:17:00,74.1,14.0,29.98,NE,46,8.0,14.0,10,0.00,,,0.00,0,weatherlink.com 1.10,2013-05-02 08:17:00,
2013-05-02 01:32:00,74.0,12.0,29.97,North,349,10.0,14.0,9,0.00,,,0.00,0,weatherlink.com 1.10,2013-05-02 08:32:00,
2013-05-02 01:47:00,73.8,14.0,29.98,ENE,69,0.0,13.0,10,0.00,,,0.00,0,weatherlink.com 1.10,2013-05-02 08:47:00,
2013-05-02 02:02:00,72.0,15.0,29.97,East,82,3.0,8.0,11,0.00,,,0.00,0,weatherlink.com 1.10,2013-05-02 09:02:00,
2013-05-02 02:17:00,71.5,14.0,29.98,ESE,109,2.0,8.0,11,0.00,,,0.00,0,weatherlink.com 1.10,2013-05-02 09:17:00,
2013-05-02 02:32:00,71.2,14.0,29.98,East,81,2.0,7.0,11,0.00,,,0.00,0,weatherlink.com 1.10,2013-05-02 09:32:00,
2013-05-02 02:47:00,71.0,14.0,29.98,NE,39,6.0,9.0,11,0.00,,,0.00,0,weatherlink.com 1.10,2013-05-02 09:47:00,
2013-05-02 03:02:00,71.4,14.0,29.97,ESE,111,5.0,9.0,11,0.00,,,0.00,0,weatherlink.com 1.10,2013-05-02 10:02:00,
2013-05-02 03:17:00,71.1,12.0,29.98,NNE,27,3.0,8.0,10,0.00,,,0.00,0,weatherlink.com 1.10,2013-05-02 10:17:00,
2013-05-02 03:32:00,70.9,14.0,29.98,ENE,71,2.0,10.0,11,0.00,,,0.00,0,weatherlink.com 1.10,2013-05-02 10:32:00,
2013-05-02 03:47:00,71.0,12.0,29.98,NE,46,4.0,9.0,10,0.00,,,0.00,0,weatherlink.com 1.10,2013-05-02 10:47:00,
2013-05-02 04:02:00,70.6,11.0,29.98,East,88,6.0,11.0,10,0.00,,,0.00,0,weatherlink.com 1.10,2013-05-02 11:02:00,
2013-05-02 04:17:00,70.8,11.0,29.98,NE,49,3.0,12.0,10,0.00,,,0.00,0,weatherlink.com 1.10,2013-05-02 11:17:00,
2013-05-02 04:32:00,70.6,11.0,29.98,ESE,108,4.0,8.0,10,0.00,,,0.00,0,weatherlink.com 1.10,2013-05-02 11:32:00,
2013-05-02 04:47:00,70.5,11.0,29.99,East,87,7.0,13.0,10,0.00,,,0.00,0,weatherlink.com 1.10,2013-05-02 11:47:00,
2013-05-02 05:02:00,70.2,11.0,29.99,East,83,3.0,10.0,10,0.00,,,0.00,0,weatherlink.com 1.10,2013-05-02 12:02:00,
2013-05-02 05:18:00,70.4,9.0,29.98,NE,49,5.0,10.0,9,0.00,,,0.00,0,weatherlink.com 1.10,2013-05-02 12:18:00,
2013-05-02 05:33:00,70.7,9.0,29.98,ENE,57,3.0,11.0,9,0.00,,,0.00,0,weatherlink.com 1.10,2013-05-02 12:33:00,
2013-05-02 05:48:00,70.1,11.0,29.99,ENE,68,1.0,7.0,10,0.00,,,0.00,0,weatherlink.com 1.10,2013-05-02 12:48:00,
2013-05-02 06:03:00,69.7,11.0,29.99,NNW,345,4.0,4.0,10,0.00,,,0.00,0,weatherlink.com 1.10,2013-05-02 13:03:00,
2013-05-02 06:18:00,68.8,10.0,30.00,ENE,68,2.0,7.0,10,0.00,,,0.00,7,weatherlink.com 1.10,2013-05-02 13:18:00,
2013-05-02 06:33:00,69.0,10.0,30.00,NNE,29,4.0,10.0,10,0.00,,,0.00,16,weatherlink.com 1.10,2013-05-02 13:33:00,
2013-05-02 06:48:00,69.6,15.0,30.01,SE,129,0.0,8.0,12,0.00,,,0.00,23,weatherlink.com 1.10,2013-05-02 13:48:00,
2013-05-02 07:03:00,69.5,13.0,30.01,North,11,2.0,11.0,11,0.00,,,0.00,30,weatherlink.com 1.10,2013-05-02 14:03:00,
2013-05-02 07:18:00,69.5,18.0,30.01,SSW,209,0.0,9.0,14,0.00,,,0.00,40,weatherlink.com 1.10,2013-05-02 14:18:00,
2013-05-02 07:33:00,70.7,14.0,30.02,ESE,109,4.0,7.0,11,0.00,,,0.00,190,weatherlink.com 1.10,2013-05-02 14:33:00,
2013-05-02 07:48:00,72.4,19.0,30.02,East,84,2.0,5.0,13,0.00,,,0.00,241,weatherlink.com 1.10,2013-05-02 14:48:00,
2013-05-02 08:03:00,73.4,16.0,30.02,NE,55,7.0,7.0,11,0.00,,,0.00,294,weatherlink.com 1.10,2013-05-02 15:03:00,
2013-05-02 08:18:00,74.1,18.0,30.02,East,96,5.0,10.0,12,0.00,,,0.00,343,weatherlink.com 1.10,2013-05-02 15:18:00,
2013-05-02 08:33:00,75.1,19.0,30.02,SE,136,2.0,7.0,12,0.00,,,0.00,396,weatherlink.com 1.10,2013-05-02 15:33:00,
2013-05-02 08:48:00,75.9,20.0,30.02,North,360,3.0,9.0,12,0.00,,,0.00,448,weatherlink.com 1.10,2013-05-02 15:48:00,
2013-05-02 09:03:00,76.9,18.0,30.02,NNE,21,6.0,9.0,11,0.00,,,0.00,496,weatherlink.com 1.10,2013-05-02 16:03:00,
2013-05-02 09:18:00,77.6,19.0,30.02,East,80,5.0,10.0,11,0.00,,,0.00,543,weatherlink.com 1.10,2013-05-02 16:18:00,
2013-05-02 09:34:00,78.7,22.0,30.02,SSW,207,2.0,7.0,12,0.00,,,0.00,591,weatherlink.com 1.10,2013-05-02 16:34:00,
2013-05-02 09:49:00,79.6,25.0,30.02,SE,144,0.0,10.0,13,0.00,,,0.00,635,weatherlink.com 1.10,2013-05-02 16:49:00,
2013-05-02 10:04:00,80.9,24.0,30.02,North,9,3.0,6.0,12,0.00,,,0.00,675,weatherlink.com 1.10,2013-05-02 17:04:00,
2013-05-02 10:19:00,81.8,26.0,30.02,ESE,115,3.0,8.0,13,0.00,,,0.00,715,weatherlink.com 1.10,2013-05-02 17:19:00,
2013-05-02 10:34:00,82.4,25.0,30.02,ENE,64,7.0,7.0,12,0.00,,,0.00,749,weatherlink.com 1.10,2013-05-02 17:34:00,
2013-05-02 10:49:00,83.2,25.0,30.02,NNW,340,3.0,7.0,12,0.00,,,0.00,782,weatherlink.com 1.10,2013-05-02 17:49:00,
2013-05-02 11:04:00,84.0,26.0,30.03,ENE,65,2.0,5.0,12,0.00,,,0.00,814,weatherlink.com 1.10,2013-05-02 18:04:00,
2013-05-02 11:19:00,84.8,27.0,30.02,NNE,30,2.0,7.0,12,0.00,,,0.00,840,weatherlink.com 1.10,2013-05-02 18:19:00,
2013-05-02 11:34:00,85.6,27.0,30.02,East,96,2.0,8.0,12,0.00,,,0.00,867,weatherlink.com 1.10,2013-05-02 18:34:00,
2013-05-02 11:49:00,86.2,21.0,30.02,ENE,61,0.0,8.0,9,0.00,,,0.00,886,weatherlink.com 1.10,2013-05-02 18:49:00,
2013-05-02 12:04:00,87.5,27.0,30.02,North,360,4.0,6.0,11,0.00,,,0.00,900,weatherlink.com 1.10,2013-05-02 19:04:00,
2013-05-02 12:19:00,86.2,26.0,30.02,SE,146,4.0,10.0,11,0.00,,,0.00,916,weatherlink.com 1.10,2013-05-02 19:19:00,
2013-05-02 12:34:00,88.1,38.0,30.02,SW,224,3.0,6.0,17,0.00,,,0.00,921,weatherlink.com 1.10,2013-05-02 19:34:00,
2013-05-02 12:49:00,89.2,43.0,30.01,WSW,248,3.0,10.0,20,0.00,,,0.00,919,weatherlink.com 1.10,2013-05-02 19:49:00,
2013-05-02 13:05:00,88.7,45.0,30.01,WSW,248,3.0,10.0,22,0.00,,,0.00,919,weatherlink.com 1.10,2013-05-02 20:05:00,
2013-05-02 13:20:00,89.7,44.0,30.01,SW,224,2.0,10.0,20,0.00,,,0.00,918,weatherlink.com 1.10,2013-05-02 20:20:00,
2013-05-02 13:35:00,89.8,41.0,30.01,West,279,4.0,9.0,18,0.00,,,0.00,923,weatherlink.com 1.10,2013-05-02 20:35:00,
2013-05-02 13:50:00,90.4,35.0,30.01,West,270,5.0,10.0,14,0.00,,,0.00,916,weatherlink.com 1.10,2013-05-02 20:50:00,
2013-05-02 14:05:00,90.4,37.0,30.00,SW,220,2.0,10.0,15,0.00,,,0.00,902,weatherlink.com 1.10,2013-05-02 21:05:00,
2013-05-02 14:20:00,90.2,35.0,30.00,WSW,252,4.0,10.0,14,0.00,,,0.00,884,weatherlink.com 1.10,2013-05-02 21:20:00,
2013-05-02 14:35:00,90.6,35.0,30.00,NW,321,2.0,9.0,14,0.00,,,0.00,861,weatherlink.com 1.10,2013-05-02 21:35:00,
2013-05-02 14:50:00,91.2,34.0,30.00,SW,230,4.0,8.0,13,0.00,,,0.00,838,weatherlink.com 1.10,2013-05-02 21:50:00,
2013-05-02 15:05:00,92.2,37.0,29.99,WNW,288,4.0,11.0,14,0.00,,,0.00,814,weatherlink.com 1.10,2013-05-02 22:05:00,
2013-05-02 15:20:00,92.2,33.0,29.99,NNW,346,0.0,12.0,12,0.00,,,0.00,784,weatherlink.com 1.10,2013-05-02 22:20:00,
2013-05-02 15:35:00,90.7,35.0,29.98,WSW,249,5.0,6.0,14,0.00,,,0.00,745,weatherlink.com 1.10,2013-05-02 22:35:00,
2013-05-02 15:50:00,91.4,36.0,29.98,WNW,300,2.0,9.0,14,0.00,,,0.00,710,weatherlink.com 1.10,2013-05-02 22:50:00,
2013-05-02 16:05:00,91.5,36.0,29.98,NW,305,4.0,9.0,14,0.00,,,0.00,673,weatherlink.com 1.10,2013-05-02 23:05:00,
2013-05-02 16:20:00,91.2,32.0,29.98,West,275,4.0,10.0,12,0.00,,,0.00,638,weatherlink.com 1.10,2013-05-02 23:20:00,
2013-05-02 16:35:00,90.8,35.0,29.97,WSW,257,2.0,8.0,14,0.00,,,0.00,594,weatherlink.com 1.10,2013-05-02 23:35:00,
2013-05-02 16:50:00,89.6,39.0,29.97,West,271,3.0,13.0,17,0.00,,,0.00,541,weatherlink.com 1.10,2013-05-02 23:50:00,
2013-05-02 17:05:00,88.9,37.0,29.97,West,275,3.0,13.0,16,0.00,,,0.00,497,weatherlink.com 1.10,2013-05-03 00:05:00,
2013-05-02 17:20:00,87.4,33.0,29.96,SW,234,7.0,13.0,14,0.00,,,0.00,446,weatherlink.com 1.10,2013-05-03 00:20:00,
2013-05-02 17:35:00,86.9,32.0,29.97,South,169,4.0,12.0,14,0.00,,,0.00,399,weatherlink.com 1.10,2013-05-03 00:35:00,
2013-05-02 17:50:00,85.9,33.0,29.97,WSW,258,9.0,10.0,15,0.00,,,0.00,350,weatherlink.com 1.10,2013-05-03 00:50:00,
2013-05-02 18:05:00,85.1,32.0,29.97,WSW,250,1.0,11.0,15,0.00,,,0.00,297,weatherlink.com 1.10,2013-05-03 01:05:00,
2013-05-02 18:20:00,84.6,30.0,29.97,West,263,5.0,8.0,14,0.00,,,0.00,250,weatherlink.com 1.10,2013-05-03 01:20:00,
2013-05-02 18:35:00,83.2,29.0,29.96,West,271,7.0,7.0,14,0.00,,,0.00,200,weatherlink.com 1.10,2013-05-03 01:35:00,
2013-05-02 18:50:00,81.7,26.0,29.96,SW,232,1.0,8.0,13,0.00,,,0.00,153,weatherlink.com 1.10,2013-05-03 01:50:00,
2013-05-02 19:05:00,80.5,30.0,29.96,West,269,1.0,5.0,16,0.00,,,0.00,104,weatherlink.com 1.10,2013-05-03 02:05:00,
2013-05-02 19:20:00,79.1,33.0,29.95,SW,231,1.0,3.0,19,0.00,,,0.00,63,weatherlink.com 1.10,2013-05-03 02:20:00,
2013-05-02 19:50:00,73.3,33.0,29.95,SE,140,1.0,2.0,23,0.00,,,0.00,12,weatherlink.com 1.10,2013-05-03 02:50:00,
2013-05-02 20:05:00,69.7,33.0,29.95,SSE,161,2.0,3.0,26,0.00,,,0.00,0,weatherlink.com 1.10,2013-05-03 03:05:00,
2013-05-02 20:20:00,69.2,32.0,29.95,South,185,1.0,3.0,25,0.00,,,0.00,0,weatherlink.com 1.10,2013-05-03 03:20:00,
2013-05-02 20:35:00,68.3,32.0,29.96,SE,132,2.0,3.0,26,0.00,,,0.00,0,weatherlink.com 1.10,2013-05-03 03:35:00,
2013-05-02 20:50:00,66.5,32.0,29.96,SE,132,2.0,3.0,28,0.00,,,0.00,0,weatherlink.com 1.10,2013-05-03 03:50:00,
2013-05-02 21:06:00,65.5,30.0,29.96,SE,132,2.0,3.0,27,0.00,,,0.00,0,weatherlink.com 1.10,2013-05-03 04:06:00,
2013-05-02 21:21:00,64.6,31.0,29.96,SE,132,2.0,3.0,29,0.00,,,0.00,0,weatherlink.com 1.10,2013-05-03 04:21:00,
2013-05-02 21:36:00,64.4,34.0,29.96,SSE,149,3.0,3.0,32,0.00,,,0.00,0,weatherlink.com 1.10,2013-05-03 04:36:00,
2013-05-02 21:51:00,64.1,32.0,29.96,SSE,149,3.0,3.0,30,0.00,,,0.00,0,weatherlink.com 1.10,2013-05-03 04:51:00,
2013-05-02 22:06:00,63.4,31.0,29.96,SE,144,3.0,3.0,30,0.00,,,0.00,0,weatherlink.com 1.10,2013-05-03 05:06:00,
2013-05-02 22:21:00,62.9,32.0,29.97,SE,144,2.0,3.0,32,0.00,,,0.00,0,weatherlink.com 1.10,2013-05-03 05:21:00,
2013-05-02 22:36:00,62.3,33.0,29.97,SE,144,2.0,3.0,33,0.00,,,0.00,0,weatherlink.com 1.10,2013-05-03 05:36:00,
2013-05-02 22:51:00,62.3,31.0,29.96,SE,140,3.0,4.0,31,0.00,,,0.00,0,weatherlink.com 1.10,2013-05-03 05:51:00,
2013-05-02 23:06:00,63.0,33.0,29.97,SE,138,2.0,4.0,32,0.00,,,0.00,0,weatherlink.com 1.10,2013-05-03 06:06:00,
2013-05-02 23:21:00,62.4,32.0,29.96,SE,146,3.0,4.0,32,0.00,,,0.00,0,weatherlink.com 1.10,2013-05-03 06:21:00,
2013-05-02 23:36:00,62.3,32.0,29.96,SSE,148,2.0,4.0,32,0.00,,,0.00,0,weatherlink.com 1.10,2013-05-03 06:36:00,
2013-05-02 23:51:00,61.6,32.0,29.96,SE,140,3.0,3.0,33,0.00,,,0.00,0,weatherlink.com 1.10,2013-05-03 06:51:00,